createdAt,value
2023-03-02T00:01:01.080Z,45.4
2023-03-02T00:06:06.077Z,45.7
2023-03-02T00:11:01.652Z,40.5
2023-03-02T00:16:01.168Z,43.4
2023-03-02T00:21:01.065Z,44.4
2023-03-02T00:26:01.095Z,46.6
2023-03-02T00:32:01.174Z,49.3
2023-03-02T00:37:02.971Z,57.3
2023-03-02T00:42:06.582Z,49.9
2023-03-02T00:47:06.176Z,51.4
2023-03-02T00:52:01.064Z,48.2
2023-03-02T00:57:01.045Z,49.3
2023-03-02T01:02:01.079Z,47.6
2023-03-02T01:07:01.075Z,54.6
2023-03-02T01:12:02.906Z,52.4
2023-03-02T01:17:06.069Z,53.6
2023-03-02T01:22:06.085Z,52.0
2023-03-02T01:27:06.088Z,49.8
2023-03-02T01:32:06.690Z,48.8
2023-03-02T01:37:01.062Z,44.8
2023-03-02T01:42:01.098Z,44.6
2023-03-02T01:52:01.069Z,46.1
2023-03-02T01:57:06.772Z,45.2
2023-03-02T02:02:06.083Z,48.4
2023-03-02T02:07:06.090Z,49.3
2023-03-02T02:12:01.064Z,47.4
2023-03-02T02:17:06.104Z,46.8
2023-03-02T02:22:08.716Z,40.0
2023-03-02T02:27:06.081Z,42.4
2023-03-02T02:32:01.245Z,43.6
2023-03-02T02:37:12.668Z,47.4
2023-03-02T02:42:02.606Z,49.6
2023-03-02T02:47:01.058Z,58.5
2023-03-02T02:52:06.062Z,57.8
2023-03-02T02:57:01.486Z,58.6
2023-03-02T03:02:01.980Z,55.9
2023-03-02T03:07:01.058Z,52.8
2023-03-02T03:12:01.073Z,49.8
2023-03-02T03:17:01.121Z,50.8
2023-03-02T03:22:06.057Z,46.8
2023-03-02T03:27:06.067Z,47.0
2023-03-02T03:32:06.144Z,43.6
2023-03-02T03:37:02.025Z,46.8
2023-03-02T03:42:01.046Z,45.8
2023-03-02T03:47:01.045Z,48.4
2023-03-02T03:52:01.093Z,48.2
2023-03-02T03:57:01.051Z,53.5
2023-03-02T04:02:01.049Z,52.2
2023-03-02T04:07:07.207Z,53.0
2023-03-02T04:12:01.046Z,51.8
2023-03-02T04:17:06.055Z,50.6
2023-03-02T04:22:01.078Z,53.0
2023-03-02T04:27:01.734Z,54.3
2023-03-02T04:32:01.164Z,52.8
2023-03-02T04:37:01.556Z,55.7
2023-03-02T04:42:01.516Z,58.9
2023-03-02T04:47:06.348Z,57.6
2023-03-02T04:52:01.063Z,57.9
2023-03-02T04:57:06.076Z,61.1
2023-03-02T05:07:01.661Z,62.9
2023-03-02T05:12:01.077Z,63.2
2023-03-02T05:17:01.105Z,64.5
2023-03-02T05:22:01.091Z,63.4
2023-03-02T05:27:01.096Z,63.0
2023-03-02T05:32:06.119Z,61.8
2023-03-02T05:37:06.056Z,63.0
2023-03-02T05:42:01.053Z,63.3
2023-03-02T05:47:01.103Z,65.4
2023-03-02T05:52:01.067Z,63.0
2023-03-02T05:57:01.700Z,64.1
2023-03-02T06:02:01.116Z,63.0
2023-03-02T06:07:06.505Z,58.9
2023-03-02T06:12:06.081Z,52.7
2023-03-02T06:17:01.049Z,54.5
2023-03-02T06:22:01.064Z,54.8
2023-03-02T06:27:01.075Z,55.4
2023-03-02T06:32:02.311Z,58.3
2023-03-02T06:37:01.069Z,63.4
2023-03-02T06:42:01.535Z,66.4
2023-03-02T06:47:01.085Z,68.4
2023-03-02T06:52:01.532Z,71.2
2023-03-02T06:57:06.058Z,65.4
2023-03-02T07:02:01.066Z,69.0
2023-03-02T07:07:01.502Z,69.1
2023-03-02T07:12:06.638Z,70.7
2023-03-02T07:17:04.090Z,71.2
2023-03-02T07:27:06.831Z,81.6
2023-03-02T07:32:06.987Z,84.1
2023-03-02T07:37:06.112Z,83.3
2023-03-02T07:42:01.634Z,79.4
2023-03-02T07:47:01.311Z,77.8
2023-03-02T07:57:01.683Z,75.4
2023-03-02T08:02:01.752Z,76.3
2023-03-02T08:07:01.635Z,78.4
2023-03-02T08:12:01.460Z,76.0
2023-03-02T08:17:03.453Z,74.5
2023-03-02T08:22:06.569Z,73.6
2023-03-02T08:27:02.985Z,70.9
2023-03-02T08:32:07.354Z,70.5
2023-03-02T08:37:06.600Z,70.6
2023-03-02T08:42:07.060Z,69.2
2023-03-02T08:47:01.060Z,68.4
2023-03-02T08:52:01.057Z,69.1
2023-03-02T08:57:01.092Z,69.0
2023-03-02T09:02:01.124Z,70.7
2023-03-02T09:07:01.093Z,72.3
2023-03-02T09:12:01.097Z,73.2
2023-03-02T09:17:01.176Z,73.6
2023-03-02T09:22:01.079Z,73.7
2023-03-02T09:27:02.448Z,73.1
2023-03-02T09:32:02.484Z,71.7
2023-03-02T09:37:01.085Z,68.7
2023-03-02T09:42:01.180Z,67.3
2023-03-02T09:47:01.115Z,66.8
2023-03-02T09:52:01.048Z,67.0
2023-03-02T09:57:01.068Z,66.5
2023-03-02T10:02:01.182Z,69.3
2023-03-02T10:07:01.069Z,68.9
2023-03-02T10:17:01.039Z,67.9
2023-03-02T10:22:01.079Z,67.6
2023-03-02T10:27:01.062Z,66.2
2023-03-02T10:32:16.634Z,66.1
2023-03-02T10:37:01.075Z,65.6
2023-03-02T10:42:01.101Z,65.0
2023-03-02T10:47:01.157Z,63.5
2023-03-02T10:52:03.867Z,63.4
2023-03-02T10:57:03.400Z,61.5
2023-03-02T11:02:02.970Z,60.8
2023-03-02T11:07:01.082Z,59.1
2023-03-02T11:12:01.143Z,54.4
2023-03-02T11:17:03.115Z,48.2
2023-03-02T11:22:01.097Z,40.0
2023-03-02T11:27:06.019Z,30.6
2023-03-02T11:32:01.176Z,22.0
2023-03-02T11:37:01.159Z,17.8
2023-03-02T11:42:01.112Z,14.4
2023-03-02T11:47:01.132Z,14.2
2023-03-02T11:52:01.079Z,15.6
2023-03-02T11:57:01.095Z,17.7
2023-03-02T12:02:01.156Z,18.3
2023-03-02T12:07:01.065Z,18.8
2023-03-02T12:12:01.088Z,20.4
2023-03-02T12:17:01.120Z,19.1
2023-03-02T12:22:01.105Z,19.5
2023-03-02T12:27:01.056Z,19.9
2023-03-02T12:32:01.202Z,21.0
2023-03-02T12:37:01.114Z,21.2
2023-03-02T12:42:01.098Z,23.3
2023-03-02T12:47:13.348Z,23.2
2023-03-02T12:52:01.271Z,24.0
2023-03-02T12:57:16.611Z,24.7
2023-03-02T13:02:01.074Z,25.4
2023-03-02T13:07:01.065Z,26.0
2023-03-02T13:12:01.075Z,26.4
2023-03-02T13:17:01.205Z,26.3
2023-03-02T13:27:01.060Z,27.0
2023-03-02T13:32:01.090Z,28.6
2023-03-02T13:37:01.154Z,30.2
2023-03-02T13:42:01.055Z,30.5
2023-03-02T13:47:01.055Z,31.8
2023-03-02T13:52:01.157Z,30.9
2023-03-02T13:57:01.214Z,29.7
2023-03-02T14:02:01.061Z,28.8
2023-03-02T14:07:01.085Z,29.5
2023-03-02T14:12:01.088Z,29.3
2023-03-02T14:17:01.173Z,30.4
2023-03-02T14:22:01.093Z,29.8
2023-03-02T14:27:01.575Z,31.7
2023-03-02T14:32:01.254Z,31.4
2023-03-02T14:37:01.157Z,31.6
2023-03-02T14:42:01.062Z,31.1
2023-03-02T14:47:01.066Z,31.9
2023-03-02T14:52:01.084Z,30.1
2023-03-02T14:57:01.796Z,29.4
2023-03-02T15:03:01.196Z,29.0
2023-03-02T15:08:01.067Z,29.1
2023-03-02T15:13:01.198Z,30.2
2023-03-02T15:18:01.063Z,31.2
2023-03-02T15:23:01.075Z,33.8
2023-03-02T15:28:01.117Z,34.0
2023-03-02T15:33:01.117Z,34.2
2023-03-02T15:38:01.743Z,32.4
2023-03-02T15:43:01.110Z,31.9
2023-03-02T15:48:01.481Z,32.4
2023-03-02T15:53:01.146Z,33.1
2023-03-02T15:58:01.055Z,34.2
2023-03-02T16:03:01.845Z,36.0
2023-03-02T16:08:01.059Z,33.6
2023-03-02T16:13:01.099Z,33.4
2023-03-02T16:18:01.536Z,31.9
2023-03-02T16:23:01.068Z,29.7
2023-03-02T16:28:02.214Z,28.8
2023-03-02T16:33:01.097Z,30.6
2023-03-02T16:38:01.079Z,30.4
2023-03-02T16:43:01.067Z,31.3
2023-03-02T16:48:01.163Z,34.8
2023-03-02T16:53:01.762Z,35.8
2023-03-02T16:58:01.540Z,36.5
2023-03-02T17:04:06.345Z,34.1
2023-03-02T17:09:01.099Z,34.9
2023-03-02T17:14:01.061Z,33.1
2023-03-02T17:19:03.180Z,32.0
2023-03-02T17:24:01.491Z,33.0
2023-03-02T17:29:01.507Z,35.9
2023-03-02T17:34:01.483Z,37.2
2023-03-02T17:40:02.433Z,48.2
2023-03-02T17:46:01.154Z,39.2
2023-03-02T17:51:01.063Z,40.7
2023-03-02T17:56:01.073Z,43.1
2023-03-02T18:01:01.058Z,43.8
2023-03-02T18:06:01.183Z,41.0
2023-03-02T18:11:02.522Z,42.9
2023-03-02T18:16:01.079Z,42.2
2023-03-02T18:21:01.058Z,38.8
2023-03-02T18:26:02.408Z,39.8
2023-03-02T18:31:02.070Z,41.9
2023-03-02T18:36:01.064Z,44.6
2023-03-02T18:41:01.055Z,45.2
2023-03-02T18:46:01.099Z,49.5
2023-03-02T18:51:01.138Z,50.6
2023-03-02T18:56:01.085Z,52.8
2023-03-02T19:01:01.102Z,52.1
2023-03-02T19:06:02.394Z,54.6
2023-03-02T19:11:01.056Z,53.7
2023-03-02T19:16:01.165Z,52.2
2023-03-02T19:21:01.517Z,50.0
2023-03-02T19:26:01.134Z,48.2
2023-03-02T19:31:01.062Z,43.7
2023-03-02T19:36:01.137Z,46.5
2023-03-02T19:41:01.114Z,49.6
2023-03-02T19:46:01.124Z,54.8
2023-03-02T19:51:02.343Z,59.0
2023-03-02T19:56:02.932Z,64.5
2023-03-02T20:01:01.154Z,63.9
2023-03-02T20:06:01.080Z,63.4
2023-03-02T20:11:01.721Z,62.6
2023-03-02T20:16:01.095Z,59.9
2023-03-02T20:21:01.201Z,60.7
2023-03-02T20:26:01.100Z,60.6
2023-03-02T20:31:01.317Z,59.8
2023-03-02T20:36:01.043Z,58.2
2023-03-02T20:41:01.055Z,61.4
2023-03-02T20:46:01.616Z,60.2
2023-03-02T20:51:01.048Z,62.9
2023-03-02T20:56:01.486Z,62.1
2023-03-02T21:01:01.216Z,63.2
2023-03-02T21:06:01.094Z,65.1
2023-03-02T21:11:02.042Z,67.2
2023-03-02T21:16:01.065Z,66.2
2023-03-02T21:21:01.136Z,67.8
2023-03-02T21:26:01.114Z,67.4
2023-03-02T21:31:01.151Z,66.2
2023-03-02T21:37:06.597Z,65.2
2023-03-02T21:42:01.123Z,64.4
2023-03-02T21:47:01.058Z,65.7
2023-03-02T21:52:01.067Z,66.8
2023-03-02T21:57:01.647Z,67.7
2023-03-02T22:02:02.447Z,68.7
2023-03-02T22:07:01.071Z,69.2
2023-03-02T22:12:01.059Z,63.1
2023-03-02T22:17:01.066Z,64.5
2023-03-02T22:22:01.165Z,65.7
2023-03-02T22:27:01.073Z,67.6
2023-03-02T22:32:01.085Z,69.3
2023-03-02T22:38:01.091Z,77.4
2023-03-02T22:43:16.407Z,77.5
2023-03-02T22:48:03.651Z,77.7
2023-03-02T22:53:01.098Z,76.8
2023-03-02T22:58:01.085Z,78.4
2023-03-02T23:03:01.071Z,77.9
2023-03-02T23:08:17.443Z,76.6
2023-03-02T23:13:01.517Z,77.4
2023-03-02T23:18:01.094Z,77.6
2023-03-02T23:23:01.193Z,75.5
2023-03-02T23:28:01.506Z,73.1
2023-03-02T23:33:01.515Z,69.0
2023-03-02T23:38:01.181Z,65.0
2023-03-02T23:43:01.672Z,64.3
2023-03-02T23:48:01.066Z,65.1
2023-03-02T23:53:01.082Z,67.1
2023-03-02T23:58:01.094Z,73.1
